createdAt,value
2022-11-22T00:00:45.422Z,3.85
2022-11-22T00:01:45.796Z,3.86
2022-11-22T00:02:45.411Z,3.88
2022-11-22T00:03:45.383Z,3.90
2022-11-22T00:04:45.391Z,3.97
2022-11-22T00:05:45.439Z,3.94
2022-11-22T00:06:45.361Z,3.98
2022-11-22T00:07:45.454Z,3.97
2022-11-22T00:08:45.324Z,3.97
2022-11-22T00:09:45.355Z,3.97
2022-11-22T00:10:45.338Z,3.97
2022-11-22T00:11:45.290Z,3.96
2022-11-22T00:12:45.301Z,3.97
2022-11-22T00:13:45.582Z,3.97
2022-11-22T00:14:45.280Z,3.98
2022-11-22T00:15:45.253Z,3.98
2022-11-22T00:16:45.247Z,4.01
2022-11-22T00:17:45.238Z,4.01
2022-11-22T00:18:45.237Z,4.01
2022-11-22T00:19:45.251Z,4.04
2022-11-22T00:20:45.207Z,4.06
2022-11-22T00:21:45.205Z,4.06
2022-11-22T00:22:45.374Z,4.07
2022-11-22T00:23:45.204Z,4.08
2022-11-22T00:24:45.180Z,4.10
2022-11-22T00:25:45.454Z,4.12
2022-11-22T00:26:45.147Z,4.14
2022-11-22T00:27:45.137Z,4.15
2022-11-22T00:28:45.125Z,4.15
2022-11-22T00:29:45.103Z,4.16
2022-11-22T00:30:45.096Z,4.16
2022-11-22T00:31:45.159Z,4.16
2022-11-22T00:32:45.381Z,4.18
2022-11-22T00:33:45.075Z,4.21
2022-11-22T00:34:45.055Z,4.21
2022-11-22T00:35:45.053Z,4.21
2022-11-22T00:36:45.054Z,4.24
2022-11-22T00:37:45.058Z,4.24
2022-11-22T00:38:45.033Z,4.26
2022-11-22T00:39:45.318Z,4.25
2022-11-22T00:40:45.003Z,4.26
2022-11-22T00:41:44.970Z,4.25
2022-11-22T00:42:44.968Z,4.25
2022-11-22T00:43:45.024Z,4.29
2022-11-22T00:44:44.950Z,4.29
2022-11-22T00:45:44.954Z,4.29
2022-11-22T00:46:45.219Z,4.32
2022-11-22T00:47:44.923Z,4.32
2022-11-22T00:48:44.906Z,4.33
2022-11-22T00:49:44.945Z,4.32
2022-11-22T00:50:44.891Z,4.32
2022-11-22T00:51:44.938Z,4.33
2022-11-22T00:52:44.884Z,4.34
2022-11-22T00:53:45.139Z,4.33
2022-11-22T00:54:47.668Z,4.34
2022-11-22T00:55:44.881Z,4.34
2022-11-22T00:56:44.841Z,4.36
2022-11-22T00:57:44.818Z,4.37
2022-11-22T00:58:44.809Z,4.37
2022-11-22T00:59:44.810Z,4.37
2022-11-22T01:00:45.111Z,4.37
2022-11-22T01:01:44.899Z,4.39
2022-11-22T01:02:44.772Z,4.39
2022-11-22T01:03:44.756Z,4.42
2022-11-22T01:04:44.782Z,4.40
2022-11-22T01:05:44.757Z,4.42
2022-11-22T01:06:44.737Z,4.40
2022-11-22T01:07:44.826Z,4.43
2022-11-22T01:08:44.728Z,4.44
2022-11-22T01:09:44.689Z,4.44
2022-11-22T01:10:44.677Z,4.44
2022-11-22T01:11:44.680Z,4.47
2022-11-22T01:12:44.672Z,4.47
2022-11-22T01:13:45.002Z,4.46
2022-11-22T01:14:44.646Z,4.47
2022-11-22T01:15:44.645Z,4.47
2022-11-22T01:16:44.652Z,4.50
2022-11-22T01:17:44.623Z,4.50
2022-11-22T01:18:44.612Z,4.47
2022-11-22T01:19:44.636Z,4.51
2022-11-22T01:20:44.913Z,4.51
2022-11-22T01:21:44.610Z,4.52
2022-11-22T01:22:44.564Z,4.52
2022-11-22T01:23:44.563Z,4.54
2022-11-22T01:24:44.518Z,4.52
2022-11-22T01:25:44.600Z,4.54
2022-11-22T01:26:44.505Z,4.54
2022-11-22T01:27:44.845Z,4.54
2022-11-22T01:28:44.584Z,4.55
2022-11-22T01:29:44.488Z,4.54
2022-11-22T01:30:44.470Z,4.55
2022-11-22T01:31:44.517Z,4.54
2022-11-22T01:32:44.452Z,4.58
2022-11-22T01:33:44.443Z,4.57
2022-11-22T01:34:45.756Z,4.58
2022-11-22T01:35:44.454Z,4.61
2022-11-22T01:36:44.401Z,4.62
2022-11-22T01:37:44.465Z,4.61
2022-11-22T01:38:44.389Z,4.64
2022-11-22T01:39:44.378Z,4.62
2022-11-22T01:40:44.364Z,4.64
2022-11-22T01:41:44.662Z,4.64
2022-11-22T01:42:44.374Z,4.64
2022-11-22T01:43:44.700Z,4.62
2022-11-22T01:44:44.335Z,4.59
2022-11-22T01:45:44.333Z,4.62
2022-11-22T01:46:44.292Z,4.62
2022-11-22T01:47:44.287Z,4.64
2022-11-22T01:48:44.565Z,4.64
2022-11-22T01:49:44.297Z,4.64
2022-11-22T01:50:44.267Z,4.64
2022-11-22T01:51:44.268Z,4.64
2022-11-22T01:52:44.247Z,4.65
2022-11-22T01:53:44.225Z,4.64
2022-11-22T01:54:44.218Z,4.65
2022-11-22T01:55:44.523Z,4.64
2022-11-22T01:56:44.222Z,4.67
2022-11-22T01:57:44.178Z,4.67
2022-11-22T01:58:44.181Z,4.67
2022-11-22T01:59:44.175Z,4.67
2022-11-22T02:00:44.230Z,4.67
2022-11-22T02:01:44.222Z,4.65
2022-11-22T02:02:44.401Z,4.69
2022-11-22T02:03:44.119Z,4.67
2022-11-22T02:04:44.099Z,4.65
2022-11-22T02:05:44.119Z,4.69
2022-11-22T02:06:44.081Z,4.69
2022-11-22T02:07:44.164Z,4.69
2022-11-22T02:08:44.067Z,4.70
2022-11-22T02:09:44.330Z,4.69
2022-11-22T02:10:44.041Z,4.69
2022-11-22T02:11:44.027Z,4.72
2022-11-22T02:12:44.016Z,4.69
2022-11-22T02:13:44.052Z,4.70
2022-11-22T02:14:44.008Z,4.69
2022-11-22T02:15:44.023Z,4.69
2022-11-22T02:16:44.249Z,4.69
2022-11-22T02:17:43.977Z,4.69
2022-11-22T02:18:43.959Z,4.70
2022-11-22T02:19:43.991Z,4.69
2022-11-22T02:20:43.941Z,4.69
2022-11-22T02:21:43.939Z,4.69
2022-11-22T02:22:43.954Z,4.69
2022-11-22T02:23:44.201Z,4.67
2022-11-22T02:24:43.897Z,4.67
2022-11-22T02:25:43.945Z,4.65
2022-11-22T02:26:43.870Z,4.65
2022-11-22T02:27:43.870Z,4.67
2022-11-22T02:28:43.884Z,4.65
2022-11-22T02:29:43.849Z,4.67
2022-11-22T02:30:44.123Z,4.65
2022-11-22T02:31:43.868Z,4.64
2022-11-22T02:32:43.825Z,4.65
2022-11-22T02:33:43.798Z,4.62
2022-11-22T02:34:43.784Z,4.64
2022-11-22T02:35:43.780Z,4.62
2022-11-22T02:36:43.769Z,4.64
2022-11-22T02:37:44.076Z,4.65
2022-11-22T02:38:43.785Z,4.64
2022-11-22T02:39:43.748Z,4.65
2022-11-22T02:40:43.723Z,4.65
2022-11-22T02:41:43.727Z,4.65
2022-11-22T02:42:43.703Z,4.67
2022-11-22T02:43:43.763Z,4.65
2022-11-22T02:44:43.954Z,4.67
2022-11-22T02:45:43.677Z,4.65
2022-11-22T02:46:43.668Z,4.69
2022-11-22T02:47:43.653Z,4.69
2022-11-22T02:48:43.645Z,4.72
2022-11-22T02:49:43.989Z,4.72
2022-11-22T02:50:43.614Z,4.72
2022-11-22T02:51:44.763Z,4.75
2022-11-22T02:52:43.607Z,4.73
2022-11-22T02:53:43.591Z,4.77
2022-11-22T02:54:43.598Z,4.76
2022-11-22T02:55:43.594Z,4.76
2022-11-22T02:56:43.557Z,4.77
2022-11-22T02:57:43.547Z,4.77
2022-11-22T02:58:43.850Z,4.83
2022-11-22T02:59:43.525Z,4.84
2022-11-22T03:00:43.554Z,4.84
2022-11-22T03:01:43.562Z,4.86
2022-11-22T03:02:43.506Z,4.86
2022-11-22T03:03:43.512Z,4.86
2022-11-22T03:04:43.481Z,4.89
2022-11-22T03:05:43.758Z,4.91
2022-11-22T03:06:43.449Z,4.92
2022-11-22T03:07:43.521Z,4.94
2022-11-22T03:08:43.437Z,4.95
2022-11-22T03:09:43.426Z,4.96
2022-11-22T03:10:43.410Z,4.98
2022-11-22T03:11:43.401Z,5.01
2022-11-22T03:12:43.680Z,4.99
2022-11-22T03:13:43.436Z,4.99
2022-11-22T03:14:43.367Z,5.01
2022-11-22T03:15:43.399Z,5.07
2022-11-22T03:16:43.346Z,5.09
2022-11-22T03:17:43.372Z,5.13
2022-11-22T03:18:43.365Z,5.14
2022-11-22T03:19:43.655Z,5.16
2022-11-22T03:20:43.303Z,5.19
2022-11-22T03:21:43.293Z,5.20
2022-11-22T03:22:43.271Z,5.22
2022-11-22T03:23:43.275Z,5.25
2022-11-22T03:24:43.307Z,5.27
2022-11-22T03:25:43.291Z,5.27
2022-11-22T03:26:43.527Z,5.27
2022-11-22T03:27:43.291Z,5.25
2022-11-22T03:28:43.219Z,5.27
2022-11-22T03:29:43.212Z,5.27
2022-11-22T03:30:43.204Z,5.25
2022-11-22T03:31:43.236Z,5.25
2022-11-22T03:32:43.174Z,5.28
2022-11-22T03:33:43.454Z,5.27
2022-11-22T03:34:43.162Z,5.30
2022-11-22T03:35:43.144Z,5.30
2022-11-22T03:36:43.130Z,5.28
2022-11-22T03:37:43.169Z,5.28
2022-11-22T03:38:43.113Z,5.27
2022-11-22T03:39:43.106Z,5.31
2022-11-22T03:40:43.411Z,5.34
2022-11-22T03:41:43.084Z,5.35
2022-11-22T03:42:43.072Z,5.34
2022-11-22T03:43:43.113Z,5.34
2022-11-22T03:44:43.062Z,5.34
2022-11-22T03:45:43.051Z,5.34
2022-11-22T03:46:43.023Z,5.35
2022-11-22T03:47:43.310Z,5.37
2022-11-22T03:48:43.013Z,5.40
2022-11-22T03:49:43.310Z,5.37
2022-11-22T03:50:42.986Z,5.40
2022-11-22T03:51:42.991Z,5.38
2022-11-22T03:52:42.986Z,5.38
2022-11-22T03:53:42.954Z,5.40
2022-11-22T03:54:43.230Z,5.40
2022-11-22T03:55:43.301Z,5.40
2022-11-22T03:56:42.925Z,5.41
2022-11-22T03:57:42.918Z,5.40
2022-11-22T03:58:42.897Z,5.43
2022-11-22T03:59:42.894Z,5.41
2022-11-22T04:00:42.877Z,5.41
2022-11-22T04:01:43.262Z,5.41
2022-11-22T04:02:42.856Z,5.43
2022-11-22T04:03:42.858Z,5.43
2022-11-22T04:04:42.850Z,5.45
2022-11-22T04:05:42.842Z,5.48
2022-11-22T04:06:42.815Z,5.50
2022-11-22T04:07:42.896Z,5.56
2022-11-22T04:08:43.145Z,5.56
2022-11-22T04:09:42.782Z,5.56
2022-11-22T04:10:42.805Z,5.57
2022-11-22T04:11:42.792Z,5.56
2022-11-22T04:12:42.746Z,5.56
2022-11-22T04:13:42.769Z,5.57
2022-11-22T04:14:42.733Z,5.63
2022-11-22T04:15:42.728Z,5.67
2022-11-22T04:16:42.714Z,5.70
2022-11-22T04:17:42.712Z,5.71
2022-11-22T04:18:42.985Z,5.73
2022-11-22T04:19:42.743Z,5.74
2022-11-22T04:20:42.672Z,5.75
2022-11-22T04:21:42.664Z,5.78
2022-11-22T04:22:42.652Z,5.82
2022-11-22T04:23:42.636Z,5.82
2022-11-22T04:24:42.651Z,5.83
2022-11-22T04:25:42.968Z,5.83
2022-11-22T04:26:42.597Z,5.86
2022-11-22T04:27:42.601Z,5.88
2022-11-22T04:29:08.606Z,5.91
2022-11-22T04:29:42.584Z,5.91
2022-11-22T04:30:42.584Z,5.91
2022-11-22T04:31:42.597Z,5.93
2022-11-22T04:32:42.826Z,5.93
2022-11-22T04:33:42.533Z,5.98
2022-11-22T04:34:42.552Z,5.98
2022-11-22T04:35:42.530Z,6.00
2022-11-22T04:36:42.493Z,6.00
2022-11-22T04:37:42.522Z,6.00
2022-11-22T04:38:42.503Z,6.00
2022-11-22T04:39:42.777Z,5.98
2022-11-22T04:40:42.467Z,6.00
2022-11-22T04:41:42.460Z,6.00
2022-11-22T04:42:42.443Z,6.00
2022-11-22T04:43:42.459Z,6.03
2022-11-22T04:44:42.416Z,6.03
2022-11-22T04:45:42.419Z,6.04
2022-11-22T04:46:42.668Z,6.03
2022-11-22T04:47:46.177Z,6.04
2022-11-22T04:48:42.375Z,6.04
2022-11-22T04:49:42.422Z,6.06
2022-11-22T04:50:42.353Z,6.09
2022-11-22T04:51:42.347Z,6.09
2022-11-22T04:52:42.335Z,6.10
2022-11-22T04:53:42.645Z,6.11
2022-11-22T04:54:42.309Z,6.13
2022-11-22T04:55:42.339Z,6.13
2022-11-22T04:56:42.286Z,6.14
2022-11-22T04:57:42.315Z,6.16
2022-11-22T04:58:42.273Z,6.19
2022-11-22T04:59:42.256Z,6.19
2022-11-22T05:00:42.611Z,6.22
2022-11-22T05:01:43.434Z,6.25
2022-11-22T05:02:42.241Z,6.28
2022-11-22T05:03:42.219Z,6.28
2022-11-22T05:04:46.271Z,6.28
2022-11-22T05:05:42.213Z,6.30
2022-11-22T05:06:42.190Z,6.29
2022-11-22T05:07:42.532Z,6.29
2022-11-22T05:08:42.163Z,6.30
2022-11-22T05:09:42.155Z,6.32
2022-11-22T05:10:42.195Z,6.30
2022-11-22T05:11:42.142Z,6.33
2022-11-22T05:12:42.119Z,6.33
2022-11-22T05:13:42.169Z,6.35
2022-11-22T05:14:42.409Z,6.32
2022-11-22T05:15:42.095Z,6.35
2022-11-22T05:16:42.088Z,6.33
2022-11-22T05:17:42.073Z,6.33
2022-11-22T05:18:42.062Z,6.33
2022-11-22T05:19:47.791Z,6.36
2022-11-22T05:20:42.043Z,6.36
2022-11-22T05:21:42.313Z,6.36
2022-11-22T05:22:42.011Z,6.35
2022-11-22T05:23:42.014Z,6.35
2022-11-22T05:24:41.994Z,6.36
2022-11-22T05:25:42.021Z,6.38
2022-11-22T05:26:41.976Z,6.36
2022-11-22T05:27:41.960Z,6.35
2022-11-22T05:28:42.234Z,6.35
2022-11-22T05:29:41.943Z,6.35
2022-11-22T05:30:41.934Z,6.36
2022-11-22T05:31:44.694Z,6.36
2022-11-22T05:32:41.950Z,6.36
2022-11-22T05:33:41.889Z,6.35
2022-11-22T05:34:41.893Z,6.36
2022-11-22T05:35:42.204Z,6.32
2022-11-22T05:36:41.882Z,6.32
2022-11-22T05:37:41.884Z,6.30
2022-11-22T05:38:41.844Z,6.28
2022-11-22T05:39:41.827Z,6.26
2022-11-22T05:40:41.821Z,6.25
2022-11-22T05:41:41.820Z,6.22
2022-11-22T05:42:42.089Z,6.21
2022-11-22T05:43:41.832Z,6.21
2022-11-22T05:44:41.787Z,6.21
2022-11-22T05:45:41.788Z,6.22
2022-11-22T05:46:41.759Z,6.21
2022-11-22T05:47:41.740Z,6.19
2022-11-22T05:48:41.756Z,6.19
2022-11-22T05:49:42.060Z,6.18
2022-11-22T05:50:41.716Z,6.21
2022-11-22T05:51:41.714Z,6.25
2022-11-22T05:52:41.706Z,6.19
2022-11-22T05:53:41.682Z,6.19
2022-11-22T05:54:41.683Z,6.16
2022-11-22T05:55:41.697Z,6.14
2022-11-22T05:56:41.962Z,6.11
2022-11-22T05:57:41.640Z,6.09
2022-11-22T05:58:41.639Z,6.09
2022-11-22T05:59:44.310Z,6.09
2022-11-22T06:00:41.621Z,6.09
2022-11-22T06:01:41.775Z,6.09
2022-11-22T06:02:41.660Z,6.06
2022-11-22T06:03:41.869Z,6.07
2022-11-22T06:04:41.570Z,6.07
2022-11-22T06:05:41.555Z,6.09
2022-11-22T06:06:41.547Z,6.07
2022-11-22T06:07:41.661Z,6.07
2022-11-22T06:08:41.526Z,6.06
2022-11-22T06:09:41.513Z,6.07
2022-11-22T06:10:41.789Z,6.03
2022-11-22T06:11:41.492Z,6.01
2022-11-22T06:12:41.518Z,6.00
2022-11-22T06:13:41.843Z,5.98
2022-11-22T06:14:43.523Z,6.01
2022-11-22T06:15:41.447Z,6.03
2022-11-22T06:16:41.447Z,6.01
2022-11-22T06:17:41.426Z,6.00
2022-11-22T06:18:41.446Z,6.00
2022-11-22T06:19:41.469Z,5.98
2022-11-22T06:20:41.399Z,5.95
2022-11-22T06:21:41.387Z,5.93
2022-11-22T06:22:41.379Z,5.93
2022-11-22T06:23:41.371Z,5.93
2022-11-22T06:24:41.360Z,5.92
2022-11-22T06:25:41.375Z,5.92
2022-11-22T06:26:41.351Z,5.93
2022-11-22T06:27:41.337Z,5.96
2022-11-22T06:28:41.330Z,6.00
2022-11-22T06:29:41.587Z,5.98
2022-11-22T06:30:41.360Z,5.95
2022-11-22T06:31:41.309Z,5.93
2022-11-22T06:32:41.275Z,5.92
2022-11-22T06:33:41.277Z,5.91
2022-11-22T06:34:41.255Z,5.92
2022-11-22T06:35:41.246Z,5.89
2022-11-22T06:36:41.238Z,5.92
2022-11-22T06:37:41.303Z,5.92
2022-11-22T06:38:41.240Z,5.93
2022-11-22T06:39:41.190Z,5.92
2022-11-22T06:40:41.194Z,5.92
2022-11-22T06:41:41.476Z,5.91
2022-11-22T06:42:41.164Z,5.91
2022-11-22T06:43:45.277Z,5.88
2022-11-22T06:44:41.167Z,5.86
2022-11-22T06:45:41.126Z,5.86
2022-11-22T06:46:41.142Z,5.82
2022-11-22T06:47:41.115Z,5.81
2022-11-22T06:48:41.115Z,5.83
2022-11-22T06:49:41.126Z,5.82
2022-11-22T06:50:41.084Z,5.78
2022-11-22T06:51:41.075Z,5.77
2022-11-22T06:52:41.068Z,5.77
2022-11-22T06:53:49.277Z,5.78
2022-11-22T06:54:41.061Z,5.77
2022-11-22T06:56:01.205Z,5.77
2022-11-22T06:56:41.045Z,5.75
2022-11-22T06:57:41.017Z,5.78
2022-11-22T06:58:41.012Z,5.81
2022-11-22T06:59:40.981Z,5.77
2022-11-22T07:00:41.265Z,5.77
2022-11-22T07:01:41.071Z,5.77
2022-11-22T07:02:40.958Z,5.75
2022-11-22T07:03:40.944Z,5.74
2022-11-22T07:05:02.307Z,5.73
2022-11-22T07:05:40.926Z,5.71
2022-11-22T07:06:40.925Z,5.71
2022-11-22T07:07:41.662Z,5.68
2022-11-22T07:08:40.916Z,5.70
2022-11-22T07:09:40.913Z,5.67
2022-11-22T07:10:40.874Z,5.66
2022-11-22T07:11:40.868Z,5.66
2022-11-22T07:12:40.861Z,5.66
2022-11-22T07:13:40.876Z,5.63
2022-11-22T07:14:41.136Z,5.64
2022-11-22T07:15:40.808Z,5.60
2022-11-22T07:16:40.811Z,5.63
2022-11-22T07:17:40.797Z,5.64
2022-11-22T07:18:40.817Z,5.64
2022-11-22T07:19:40.806Z,5.66
2022-11-22T07:20:40.772Z,5.64
2022-11-22T07:21:41.049Z,5.64
2022-11-22T07:22:40.761Z,5.63
2022-11-22T07:23:40.747Z,5.64
2022-11-22T07:24:40.735Z,5.64
2022-11-22T07:25:40.746Z,5.66
2022-11-22T07:26:40.704Z,5.63
2022-11-22T07:27:40.686Z,5.64
2022-11-22T07:28:40.982Z,5.64
2022-11-22T07:29:40.696Z,5.63
2022-11-22T07:30:43.959Z,5.63
2022-11-22T07:31:40.699Z,5.63
2022-11-22T07:32:40.648Z,5.63
2022-11-22T07:33:40.617Z,5.60
2022-11-22T07:34:40.628Z,5.60
2022-11-22T07:35:40.938Z,5.63
2022-11-22T07:36:40.632Z,5.63
2022-11-22T07:37:40.609Z,5.60
2022-11-22T07:38:40.583Z,5.64
2022-11-22T07:39:40.579Z,5.64
2022-11-22T07:40:40.583Z,5.66
2022-11-22T07:41:40.571Z,5.67
2022-11-22T07:42:40.538Z,5.67
2022-11-22T07:43:40.562Z,5.68
2022-11-22T07:44:40.517Z,5.70
2022-11-22T07:45:40.541Z,5.71
2022-11-22T07:46:40.516Z,5.74
2022-11-22T07:47:40.528Z,5.74
2022-11-22T07:48:40.764Z,5.75
2022-11-22T07:49:40.505Z,5.78
2022-11-22T07:50:40.461Z,5.82
2022-11-22T07:51:40.440Z,5.85
2022-11-22T07:52:40.447Z,5.83
2022-11-22T07:53:40.424Z,5.83
2022-11-22T07:54:40.417Z,5.81
2022-11-22T07:55:40.782Z,5.82
2022-11-22T07:56:40.410Z,5.82
2022-11-22T07:57:40.376Z,5.85
2022-11-22T07:58:40.388Z,5.83
2022-11-22T07:59:40.352Z,5.83
2022-11-22T08:00:40.369Z,5.83
2022-11-22T08:01:40.425Z,5.85
2022-11-22T08:02:40.620Z,5.86
2022-11-22T08:03:40.302Z,5.91
2022-11-22T08:04:40.334Z,5.95
2022-11-22T08:05:40.295Z,6.00
2022-11-22T08:06:40.333Z,6.06
2022-11-22T08:07:40.381Z,6.09
2022-11-22T08:08:40.300Z,6.07
2022-11-22T08:09:40.274Z,6.07
2022-11-22T08:10:40.238Z,6.09
2022-11-22T08:11:40.245Z,6.09
2022-11-22T08:12:40.220Z,6.10
2022-11-22T08:13:40.259Z,6.09
2022-11-22T08:14:40.211Z,6.09
2022-11-22T08:15:40.513Z,6.10
2022-11-22T08:16:40.188Z,6.13
2022-11-22T08:17:40.203Z,6.14
2022-11-22T08:18:40.216Z,6.18
2022-11-22T08:19:40.191Z,6.21
2022-11-22T08:20:40.142Z,6.29
2022-11-22T08:21:40.147Z,6.29
2022-11-22T08:22:40.128Z,6.25
2022-11-22T08:23:40.145Z,6.28
2022-11-22T08:24:40.138Z,6.33
2022-11-22T08:25:40.115Z,6.48
2022-11-22T08:26:40.120Z,6.59
2022-11-22T08:27:40.360Z,6.65
2022-11-22T08:28:40.059Z,6.68
2022-11-22T08:29:40.078Z,6.69
2022-11-22T08:30:40.060Z,6.66
2022-11-22T08:31:40.057Z,6.56
2022-11-22T08:32:40.051Z,6.46
2022-11-22T08:33:40.032Z,6.41
2022-11-22T08:34:45.791Z,6.41
2022-11-22T08:35:39.969Z,6.46
2022-11-22T08:36:39.975Z,6.50
2022-11-22T08:37:40.329Z,6.58
2022-11-22T08:38:39.960Z,6.69
2022-11-22T08:39:39.926Z,6.80
2022-11-22T08:40:41.277Z,6.72
2022-11-22T08:41:39.968Z,6.72
2022-11-22T08:42:39.912Z,6.66
2022-11-22T08:43:39.931Z,6.63
2022-11-22T08:44:39.897Z,6.63
2022-11-22T08:45:40.159Z,6.66
2022-11-22T08:46:39.874Z,6.58
2022-11-22T08:47:39.852Z,6.51
2022-11-22T08:48:39.872Z,6.46
2022-11-22T08:49:39.881Z,6.51
2022-11-22T08:50:39.821Z,6.62
2022-11-22T08:51:39.799Z,6.77
2022-11-22T08:52:40.084Z,6.86
2022-11-22T08:53:39.784Z,6.98
2022-11-22T08:54:39.784Z,7.01
2022-11-22T08:55:39.782Z,6.99
2022-11-22T08:56:39.748Z,6.94
2022-11-22T08:57:39.744Z,6.95
2022-11-22T08:58:39.749Z,6.90
2022-11-22T08:59:39.752Z,6.87
2022-11-22T09:00:39.712Z,6.95
2022-11-22T09:01:39.789Z,7.12
2022-11-22T09:02:39.694Z,7.29
2022-11-22T09:03:39.687Z,7.42
2022-11-22T09:04:39.701Z,7.84
2022-11-22T09:08:42.999Z,8.10
2022-11-22T09:09:39.620Z,8.21
2022-11-22T09:10:39.618Z,8.33
2022-11-22T09:11:39.607Z,8.40
2022-11-22T09:12:39.597Z,8.48
2022-11-22T09:13:39.608Z,8.45
2022-11-22T09:14:39.570Z,8.45
2022-11-22T09:15:39.570Z,8.60
2022-11-22T09:16:39.542Z,8.78
2022-11-22T09:17:39.538Z,8.63
2022-11-22T09:18:39.858Z,8.60
2022-11-22T09:19:39.554Z,8.69
2022-11-22T09:20:39.510Z,8.88
2022-11-22T09:21:39.486Z,8.97
2022-11-22T09:22:39.477Z,9.10
2022-11-22T09:23:39.475Z,8.94
2022-11-22T09:24:39.458Z,9.09
2022-11-22T09:25:39.477Z,9.05
2022-11-22T09:26:39.436Z,9.05
2022-11-22T09:27:39.430Z,9.04
2022-11-22T09:28:39.456Z,9.32
2022-11-22T09:29:39.395Z,9.57
2022-11-22T09:30:39.383Z,9.48
2022-11-22T09:31:39.415Z,9.57
2022-11-22T09:32:39.365Z,9.79
2022-11-22T09:33:39.353Z,9.66
2022-11-22T09:34:39.385Z,9.52
2022-11-22T09:35:39.345Z,9.42
2022-11-22T09:36:39.605Z,9.42
2022-11-22T09:37:39.323Z,9.46
2022-11-22T09:38:39.303Z,9.67
2022-11-22T09:39:42.589Z,9.61
2022-11-22T09:40:39.286Z,9.21
2022-11-22T09:41:39.294Z,9.48
2022-11-22T09:42:39.289Z,9.79
2022-11-22T09:43:39.584Z,9.49
2022-11-22T09:44:39.264Z,9.52
2022-11-22T09:45:39.240Z,9.38
2022-11-22T09:46:39.236Z,9.43
2022-11-22T09:47:39.208Z,9.56
2022-11-22T09:48:39.269Z,9.63
2022-11-22T09:49:39.210Z,9.91
2022-11-22T09:50:39.549Z,9.97
2022-11-22T09:51:39.163Z,10.03
2022-11-22T09:52:39.143Z,9.88
2022-11-22T09:53:39.124Z,9.81
2022-11-22T09:54:39.163Z,9.96
2022-11-22T09:55:39.144Z,10.17
2022-11-22T09:56:39.105Z,10.15
2022-11-22T09:57:39.384Z,10.52
2022-11-22T09:58:39.072Z,10.88
2022-11-22T09:59:39.080Z,11.13
2022-11-22T10:00:39.104Z,11.02
2022-11-22T10:01:39.183Z,10.96
2022-11-22T10:02:58.980Z,10.99
2022-11-22T10:03:39.043Z,11.31
2022-11-22T10:04:39.326Z,11.38
2022-11-22T10:05:39.051Z,11.31
2022-11-22T10:06:39.000Z,11.13
2022-11-22T10:07:39.115Z,11.10
2022-11-22T10:08:38.995Z,10.86
2022-11-22T10:09:39.008Z,11.07
2022-11-22T10:10:38.991Z,11.27
2022-11-22T10:11:39.254Z,10.95
2022-11-22T10:12:39.019Z,11.07
2022-11-22T10:13:38.962Z,11.28
2022-11-22T10:14:38.905Z,11.24
2022-11-22T10:15:38.912Z,11.32
2022-11-22T10:16:38.889Z,11.24
2022-11-22T10:17:38.889Z,11.01
2022-11-22T10:18:39.155Z,10.95
2022-11-22T10:19:38.905Z,10.71
2022-11-22T10:20:38.851Z,10.80
2022-11-22T10:21:38.846Z,10.71
2022-11-22T10:22:38.845Z,10.77
2022-11-22T10:23:38.851Z,10.95
2022-11-22T10:24:38.794Z,11.20
2022-11-22T10:25:39.154Z,11.39
2022-11-22T10:26:38.778Z,11.44
2022-11-22T10:27:38.775Z,11.75
2022-11-22T10:28:38.774Z,11.65
2022-11-22T10:29:38.785Z,11.59
2022-11-22T10:30:38.769Z,11.93
2022-11-22T10:31:38.769Z,12.11
2022-11-22T10:32:38.726Z,12.09
2022-11-22T10:33:44.008Z,12.31
2022-11-22T10:34:38.700Z,12.33
2022-11-22T10:35:38.703Z,12.20
2022-11-22T10:36:38.681Z,12.30
2022-11-22T10:37:38.706Z,12.46
2022-11-22T10:38:38.641Z,12.64
2022-11-22T10:39:38.835Z,12.27
2022-11-22T10:40:38.680Z,12.19
2022-11-22T10:41:38.647Z,12.29
2022-11-22T10:42:38.612Z,12.44
2022-11-22T10:43:38.640Z,12.56
2022-11-22T10:44:38.592Z,12.34
2022-11-22T10:45:38.626Z,12.23
2022-11-22T10:46:38.554Z,12.52
2022-11-22T10:47:38.593Z,12.33
2022-11-22T10:48:38.570Z,12.01
2022-11-22T10:49:38.607Z,12.05
2022-11-22T10:50:38.828Z,12.04
2022-11-22T10:51:38.559Z,11.96
2022-11-22T10:52:38.523Z,11.39
2022-11-22T10:53:38.487Z,11.65
2022-11-22T10:54:38.480Z,12.05
2022-11-22T10:55:38.521Z,12.13
2022-11-22T10:56:38.495Z,11.82
2022-11-22T10:57:38.462Z,11.97
2022-11-22T10:58:38.452Z,11.97
2022-11-22T10:59:38.440Z,12.08
2022-11-22T11:00:38.447Z,11.49
2022-11-22T11:01:39.273Z,11.75
2022-11-22T11:02:38.417Z,12.01
2022-11-22T11:03:38.422Z,11.49
2022-11-22T11:04:38.387Z,11.21
2022-11-22T11:05:42.043Z,11.19
2022-11-22T11:07:04.774Z,10.98
2022-11-22T11:07:38.457Z,10.66
2022-11-22T11:09:12.450Z,11.13
2022-11-22T11:10:10.195Z,10.88
2022-11-22T11:10:38.393Z,11.06
2022-11-22T11:11:38.383Z,11.13
2022-11-22T11:12:38.304Z,10.68
2022-11-22T11:13:38.324Z,11.13
2022-11-22T11:14:38.300Z,11.09
2022-11-22T11:15:38.569Z,11.09
2022-11-22T11:16:38.271Z,10.77
2022-11-22T11:17:38.265Z,10.37
2022-11-22T11:18:38.255Z,10.30
2022-11-22T11:19:38.259Z,10.26
2022-11-22T11:20:38.232Z,10.34
2022-11-22T11:21:38.240Z,10.26
2022-11-22T11:23:12.537Z,10.07
2022-11-22T11:23:38.221Z,9.88
2022-11-22T11:24:38.180Z,9.76
2022-11-22T11:25:38.223Z,9.68
2022-11-22T11:26:38.160Z,9.53
2022-11-22T11:27:38.158Z,9.42
2022-11-22T11:28:38.142Z,9.42
2022-11-22T11:29:38.535Z,9.46
2022-11-22T11:30:38.128Z,9.35
2022-11-22T11:31:38.159Z,9.28
2022-11-22T11:32:38.089Z,9.20
2022-11-22T11:33:38.079Z,9.13
2022-11-22T11:34:38.060Z,9.09
2022-11-22T11:35:38.047Z,9.09
2022-11-22T11:36:38.053Z,9.05
2022-11-22T11:37:38.066Z,9.09
2022-11-22T11:38:38.026Z,9.04
2022-11-22T11:39:43.429Z,9.05
2022-11-22T11:40:38.023Z,8.99
2022-11-22T11:41:43.315Z,9.02
2022-11-22T11:42:37.984Z,9.01
2022-11-22T11:43:38.011Z,9.05
2022-11-22T11:44:37.975Z,9.02
2022-11-22T11:45:37.965Z,9.01
2022-11-22T11:46:37.937Z,9.02
2022-11-22T11:47:37.997Z,9.04
2022-11-22T11:48:38.411Z,9.04
2022-11-22T11:49:38.270Z,8.99
2022-11-22T11:50:37.974Z,8.94
2022-11-22T11:51:37.927Z,8.91
2022-11-22T11:52:37.892Z,8.94
2022-11-22T11:53:37.910Z,8.93
2022-11-22T11:54:37.847Z,8.96
2022-11-22T11:55:37.915Z,9.04
2022-11-22T11:56:37.845Z,8.99
2022-11-22T11:57:37.845Z,9.04
2022-11-22T11:58:37.817Z,9.06
2022-11-22T11:59:37.802Z,9.12
2022-11-22T12:00:37.793Z,9.09
2022-11-22T12:01:39.163Z,9.10
2022-11-22T12:02:37.842Z,9.13
2022-11-22T12:03:37.764Z,9.21
2022-11-22T12:04:37.743Z,9.27
2022-11-22T12:05:37.740Z,9.23
2022-11-22T12:06:37.995Z,9.23
2022-11-22T12:07:37.830Z,9.13
2022-11-22T12:08:37.698Z,9.15
2022-11-22T12:09:38.305Z,9.06
2022-11-22T12:10:37.696Z,9.04
2022-11-22T12:11:37.680Z,9.01
2022-11-22T12:12:37.976Z,8.99
2022-11-22T12:13:51.742Z,9.05
2022-11-22T12:15:03.249Z,9.09
2022-11-22T12:15:37.636Z,9.15
2022-11-22T12:16:37.604Z,9.15
2022-11-22T12:17:37.628Z,9.20
2022-11-22T12:18:37.614Z,9.21
2022-11-22T12:19:37.625Z,9.23
2022-11-22T12:20:37.602Z,9.23
2022-11-22T12:21:37.572Z,9.20
2022-11-22T12:22:52.953Z,9.18
2022-11-22T12:23:37.560Z,9.15
2022-11-22T12:25:16.902Z,9.16
2022-11-22T12:25:38.099Z,9.23
2022-11-22T12:26:37.483Z,9.18
2022-11-22T12:27:37.505Z,9.16
2022-11-22T12:28:37.518Z,9.18
2022-11-22T12:29:37.506Z,9.18
2022-11-22T12:30:37.467Z,9.18
2022-11-22T12:31:37.566Z,9.15
2022-11-22T12:32:37.451Z,9.09
2022-11-22T12:33:37.452Z,9.04
2022-11-22T12:34:37.440Z,9.01
2022-11-22T12:35:37.444Z,8.97
2022-11-22T12:36:37.419Z,9.01
2022-11-22T12:37:37.782Z,8.94
2022-11-22T12:38:37.370Z,8.94
2022-11-22T12:39:37.365Z,8.93
2022-11-22T12:40:37.359Z,8.88
2022-11-22T12:41:37.351Z,8.84
2022-11-22T12:42:37.352Z,8.84
2022-11-22T12:43:37.405Z,8.84
2022-11-22T12:44:37.600Z,8.83
2022-11-22T12:45:37.305Z,8.84
2022-11-22T12:46:39.559Z,8.84
2022-11-22T12:47:37.320Z,8.84
2022-11-22T12:48:37.293Z,8.86
2022-11-22T12:49:37.343Z,8.86
2022-11-22T12:50:37.259Z,8.88
2022-11-22T12:51:37.565Z,8.87
2022-11-22T12:52:37.235Z,8.87
2022-11-22T12:53:37.255Z,8.86
2022-11-22T12:54:37.272Z,8.84
2022-11-22T12:55:37.236Z,8.83
2022-11-22T12:56:37.191Z,8.84
2022-11-22T12:57:37.193Z,8.84
2022-11-22T12:58:37.461Z,8.84
2022-11-22T12:59:37.157Z,8.83
2022-11-22T13:00:37.155Z,8.81
2022-11-22T13:01:37.361Z,8.78
2022-11-22T13:02:37.148Z,8.75
2022-11-22T13:03:37.126Z,8.73
2022-11-22T13:04:37.098Z,8.73
2022-11-22T13:05:37.425Z,8.72
2022-11-22T13:06:37.090Z,8.75
2022-11-22T13:07:37.182Z,8.73
2022-11-22T13:08:37.071Z,8.73
2022-11-22T13:09:37.071Z,8.73
2022-11-22T13:10:37.115Z,8.73
2022-11-22T13:11:37.056Z,8.75
2022-11-22T13:12:37.305Z,8.75
2022-11-22T13:13:37.138Z,8.78
2022-11-22T13:14:36.999Z,8.79
2022-11-22T13:15:37.085Z,8.83
2022-11-22T13:16:36.959Z,8.81
2022-11-22T13:17:36.980Z,8.84
2022-11-22T13:18:37.034Z,8.86